Morris, MN

7:53 PM CDT on August 29, 2014 (GMT -0500)
Elbow Lake | Change Station
CLOSE
Current Station
Airport
Location: Elbow Lake,
Elevation: 1204 ft
Nearby Weather Stations

Elev 1204 ft 45.99 °N, 95.99 °W | Updated 20 minutes ago

Overcast
Overcast
69 °F
Feels Like 69 °F
N
0
Wind Variable Wind from North

Today
High -- | Low -- °F
--% Chance of Precip.
Yesterday
High -- | Low -- °F
Precip. -- in
6:41 AM 8:06 PM
Waxing Crescent, 17% visible
Pressure 29.78 in
Visibility 10.0 miles
Clouds Scattered Clouds 2600 ft
Overcast 3600 ft
Dew Point 66 °F
Humidity 89%
Rainfall 0.06 in
Snow Depth Not available.
UV 0 out of 12
Pollen 3.30 out of 12
Air Quality Not available.
Flu Activity Not available.
METAR KY63 300033Z AUTO 00000KT 10SM SCT026 OVC036 21/19 A2978 RMK AO2 T02050187

More Conditions Fewer Conditions

Pressure 29.78 in
Visibility 10.0 miles
Clouds Scattered Clouds 2600 ft
Overcast 3600 ft
Dew Point 66 °F
Humidity 89%
Rainfall 0.06 in
Snow Depth Not available.
UV 0 out of 12
Pollen 3.30 out of 12
Air Quality Not available.
Flu Activity Not available.
METAR KY63 300033Z AUTO 00000KT 10SM SCT026 OVC036 21/19 A2978 RMK AO2 T02050187

More Conditions Fewer Conditions

10-Day Weather Forecast

Almanac

Astronomy

Aug. 29, 2014 Rise Set
Actual Time 6:41 AM CDT 8:06 PM CDT
Civil Twilight 6:10 AM CDT 8:37 PM CDT
Nautical Twilight 5:32 AM CDT 9:14 PM CDT
Astronomical Twilight 4:52 AM CDT 9:54 PM CDT
Moon 10:45 AM CDT (8/29) 9:50 PM CDT (8/29)
Length of Visible Light 14h 27m
Length of Day
13h 25m
Tomorrow will be 3m 4s shorter.
Waxing Crescent, 17% of the Moon is Illuminated
Today
Waxing Crescent
Sep 2
First Quarter
Sep 8
Full
Sep 15
Last Quarter
Sep 24
New

Today's Extremes

State Highs State Lows

Community

WunderPhotos

Upload Photos

1,748,390 photos uploaded!

Nearby

Snow Depth

Station Depth Elevation
No new snow has been reported.

Earthquake Activity

City Distance Mag. Time & Date
No recent earthquake activity has been reported nearby.
Minimum magnitude displayed is 2.5.

Coastal Water Temperatures

Place Temperature
No Stations Reporting

Nearby Weather Stations